Time;durP1;ratioP1;P1;durP2;ratioP2;P2;SDS_P1;SDS_P2;PMS_P1;PMS_P2;Temp;Humidity;BMP_temperature;BMP_pressure;BME280_temperature;BME280_humidity;BME280_pressure;Samples;Min_cycle;Max_cycle;Signal;HPM_P1;HPM_P2
2023/02/01 00:01:41;;;;;;;24.67;4.25;;;;;;;-143.48;74.76;118439.88;5095324;28;20494;-36
2023/02/01 00:04:07;;;;;;;23.08;3.53;;;;;;;-143.48;74.06;118439.88;5095269;28;20111;-35
2023/02/01 00:06:32;;;;;;;25.35;3.70;;;;;;;-143.48;74.09;118439.88;5095227;28;20070;-36
2023/02/01 00:08:58;;;;;;;19.17;3.08;;;;;;;-143.48;73.56;118439.88;5095434;28;20352;-35
2023/02/01 00:11:23;;;;;;;23.67;4.40;;;;;;;-143.48;73.83;118439.88;5095100;28;20020;-36
2023/02/01 00:13:49;;;;;;;23.05;3.63;;;;;;;-143.48;74.04;118439.88;5095390;28;20028;-35
2023/02/01 00:16:29;;;;;;;26.70;4.13;;;;;;;-143.48;73.74;118439.88;5094931;28;20028;-36
2023/02/01 00:19:04;;;;;;;18.77;2.97;;;;;;;-143.48;73.06;118439.88;5095452;28;20069;-38
2023/02/01 00:21:31;;;;;;;28.83;3.15;;;;;;;-143.48;73.01;118439.88;5095231;28;20368;-37
2023/02/01 00:23:57;;;;;;;19.25;3.25;;;;;;;-143.48;72.98;118439.88;5095149;28;20493;-36
2023/02/01 00:26:31;;;;;;;26.15;3.47;;;;;;;-143.48;72.82;118439.88;5094846;28;20023;-35
2023/02/01 00:28:57;;;;;;;28.95;3.17;;;;;;;-143.48;72.48;118439.88;5094721;28;20471;-36
2023/02/01 00:31:22;;;;;;;21.45;3.22;;;;;;;-143.48;72.62;118439.88;5094900;28;20069;-36
2023/02/01 00:33:48;;;;;;;23.60;3.35;;;;;;;-143.48;72.42;118439.88;5094972;28;20084;-35
2023/02/01 00:36:14;;;;;;;26.35;4.10;;;;;;;-143.48;71.89;118439.88;5094556;28;20047;-37
2023/02/01 00:38:39;;;;;;;32.90;3.92;;;;;;;-143.48;72.10;118439.88;5095234;28;20031;-35
2023/02/01 00:41:14;;;;;;;21.35;3.60;;;;;;;-143.48;72.31;118439.88;5095097;28;20032;-37
2023/02/01 00:43:40;;;;;;;26.08;3.65;;;;;;;-143.48;72.41;118439.88;5094460;28;20114;-35
2023/02/01 00:46:05;;;;;;;21.88;3.50;;;;;;;-143.48;71.87;118439.88;5094143;28;20055;-36
2023/02/01 00:48:31;;;;;;;20.27;3.53;;;;;;;-143.48;71.77;118439.88;5094424;28;20493;-36
2023/02/01 00:51:00;;;;;;;19.25;3.05;;;;;;;-143.48;71.53;118439.88;5094344;28;20411;-36
2023/02/01 00:53:26;;;;;;;21.52;3.17;;;;;;;-143.48;71.95;118439.88;5094207;28;20020;-36
2023/02/01 00:55:51;;;;;;;23.60;3.08;;;;;;;-143.48;72.19;118439.88;5094526;28;20024;-36
2023/02/01 00:58:17;;;;;;;24.23;3.35;;;;;;;-143.48;72.40;118439.88;5094626;28;20028;-36
2023/02/01 01:00:42;;;;;;;18.60;3.08;;;;;;;-143.48;71.68;118439.88;5094802;28;20031;-35
2023/02/01 01:03:17;;;;;;;22.02;3.65;;;;;;;-143.48;71.69;118439.88;5094378;28;20416;-36
2023/02/01 01:05:46;;;;;;;19.60;2.75;;;;;;;-143.48;71.33;118439.88;5094476;28;20019;-36
2023/02/01 01:08:12;;;;;;;25.15;3.08;;;;;;;-143.48;71.55;118439.88;5094398;28;20023;-36
2023/02/01 01:10:38;;;;;;;22.08;2.97;;;;;;;-143.48;71.90;118439.88;5094653;28;20024;-36
2023/02/01 01:13:04;;;;;;;25.52;4.10;;;;;;;-143.48;72.37;118439.88;5093945;28;20451;-35
2023/02/01 01:15:29;;;;;;;22.95;3.45;;;;;;;-143.48;72.21;118439.88;5093932;28;20034;-36
2023/02/01 01:17:55;;;;;;;24.20;3.80;;;;;;;-143.48;71.47;118439.88;5093949;28;20028;-37
2023/02/01 01:20:21;;;;;;;26.60;3.05;;;;;;;-143.48;71.30;118439.88;5094198;28;20107;-39
2023/02/01 01:22:47;;;;;;;22.38;3.20;;;;;;;-143.48;70.89;118439.88;5094090;28;20125;-36
2023/02/01 01:25:13;;;;;;;20.52;3.30;;;;;;;-143.48;71.36;118439.88;5093707;28;20029;-36
2023/02/01 01:27:38;;;;;;;24.00;3.58;;;;;;;-143.48;71.34;118439.88;5094092;28;20382;-36
2023/02/01 01:30:04;;;;;;;20.13;2.97;;;;;;;-143.48;70.68;118439.88;5093737;28;20161;-35
2023/02/01 01:32:29;;;;;;;17.17;3.10;;;;;;;-143.48;71.25;118439.88;5093941;28;20378;-34
2023/02/01 01:34:55;;;;;;;24.42;3.17;;;;;;;-143.48;71.39;118439.88;5093591;28;20020;-36
2023/02/01 01:37:20;;;;;;;24.00;3.42;;;;;;;-143.48;70.27;118439.88;5093930;28;20104;-35
2023/02/01 01:39:45;;;;;;;22.38;3.15;;;;;;;-143.48;70.41;118439.88;5093646;28;20024;-36
2023/02/01 01:42:13;;;;;;;21.50;3.25;;;;;;;-143.48;70.32;118439.88;5075508;28;20024;-37
2023/02/01 01:44:58;;;;;;;20.55;3.15;;;;;;;-143.48;71.46;118439.88;5093841;28;20366;-36
2023/02/01 01:47:26;;;;;;;22.40;3.25;;;;;;;-143.48;70.93;118439.88;5093425;28;20056;-36
2023/02/01 01:49:52;;;;;;;18.52;3.30;;;;;;;-143.48;70.97;118439.88;5094148;28;20024;-36
2023/02/01 01:52:18;;;;;;;24.35;3.65;;;;;;;-143.48;70.20;118439.88;5093567;28;20485;-35
2023/02/01 01:54:48;;;;;;;31.60;4.05;;;;;;;-143.48;71.42;118439.88;5093445;28;20028;-35
2023/02/01 01:57:28;;;;;;;26.95;3.35;;;;;;;-143.48;70.83;118439.88;5093318;28;20035;-36
2023/02/01 02:00:12;;;;;;;25.88;3.67;;;;;;;-143.48;71.43;118439.88;5097717;28;20020;-36
2023/02/01 02:02:40;;;;;;;23.83;3.38;;;;;;;-143.48;70.97;118439.88;5097140;28;20020;-36
2023/02/01 02:05:06;;;;;;;27.27;3.60;;;;;;;-143.48;71.30;118439.88;5097133;28;20471;-36
2023/02/01 02:07:39;;;;;;;22.42;3.15;;;;;;;-143.48;71.16;118439.88;5097089;28;20020;-36
2023/02/01 02:10:07;;;;;;;22.02;4.07;;;;;;;-143.48;71.22;118439.88;5096934;28;20028;-35
2023/02/01 02:12:32;;;;;;;21.88;3.20;;;;;;;-143.48;71.54;118439.88;5096942;28;20026;-35
2023/02/01 02:14:58;;;;;;;29.20;4.20;;;;;;;-143.48;71.22;118439.88;5096790;28;20036;-38
2023/02/01 02:18:08;;;;;;;23.50;3.10;;;;;;;-143.48;71.42;118439.88;5097348;28;20032;-42
2023/02/01 02:21:03;;;;;;;18.98;3.10;;;;;;;-143.48;71.48;118439.88;5097225;28;20526;-36
2023/02/01 02:24:05;;;;;;;28.60;3.53;;;;;;;-143.48;71.45;118439.88;5097230;28;20107;-35
2023/02/01 02:27:02;;;;;;;23.13;3.85;;;;;;;-143.48;70.65;118439.88;5097492;28;20376;-36
2023/02/01 02:29:30;;;;;;;19.55;3.42;;;;;;;-143.48;71.38;118439.88;5097448;28;20107;-36
2023/02/01 02:32:33;;;;;;;27.50;3.40;;;;;;;-143.48;71.34;118439.88;5097065;28;20020;-35
2023/02/01 02:35:37;;;;;;;20.35;2.92;;;;;;;-143.48;70.87;118439.88;5096710;28;20040;-36
2023/02/01 02:38:16;;;;;;;23.10;3.28;;;;;;;-143.48;70.73;118439.88;5093442;28;20071;-37
2023/02/01 02:40:57;;;;;;;21.15;3.25;;;;;;;-143.48;71.28;118439.88;5097205;28;20024;-35
2023/02/01 02:54:45;;;;;;;20.77;3.38;;;;;;;-143.48;70.28;118439.88;5064542;28;20043;-35
2023/02/01 02:55:35;;;;;;;18.70;3.20;;;;;;;-143.48;71.77;118439.88;5096638;28;20535;-37
2023/02/01 03:06:23;;;;;;;20.55;3.40;;;;;;;-143.48;73.08;118439.88;5096835;28;20103;-36
2023/02/01 03:08:48;;;;;;;19.83;3.30;;;;;;;-143.48;72.62;118439.88;5095795;28;20106;-38
2023/02/01 03:11:14;;;;;;;20.33;4.00;;;;;;;-143.48;72.92;118439.88;5095800;28;20063;-36
2023/02/01 03:13:53;;;;;;;25.83;3.30;;;;;;;-143.48;72.91;118439.88;5096483;28;20134;-36
2023/02/01 03:16:33;;;;;;;25.92;3.65;;;;;;;-143.48;72.93;118439.88;5096142;28;20028;-36
2023/02/01 03:19:19;;;;;;;28.33;3.92;;;;;;;-143.48;73.48;118439.88;5096426;28;20530;-35
2023/02/01 03:21:57;;;;;;;36.05;4.13;;;;;;;-143.48;73.58;118439.88;5096657;28;20028;-35
2023/02/01 03:24:35;;;;;;;20.20;3.58;;;;;;;-143.48;73.64;118439.88;5096061;28;20480;-35
2023/02/01 03:27:27;;;;;;;25.40;3.67;;;;;;;-143.48;74.67;118439.88;5095966;28;20035;-37
2023/02/01 03:30:00;;;;;;;26.35;3.83;;;;;;;-143.48;74.64;118439.88;5085016;28;20036;-36
2023/02/01 03:32:26;;;;;;;19.77;6.35;;;;;;;-143.48;74.46;118439.88;5096084;28;20126;-37
2023/02/01 03:34:53;;;;;;;29.05;3.67;;;;;;;-143.48;75.23;118439.88;5096176;28;20121;-35
2023/02/01 03:37:25;;;;;;;24.08;3.15;;;;;;;-143.48;74.83;118439.88;5095967;28;20412;-38
2023/02/01 03:40:08;;;;;;;21.90;3.42;;;;;;;-143.48;74.69;118439.88;5095760;28;20039;-37
2023/02/01 03:42:48;;;;;;;26.63;4.07;;;;;;;-143.48;75.19;118439.88;5096020;28;20024;-37
2023/02/01 03:45:20;;;;;;;18.23;2.97;;;;;;;-143.48;75.22;118439.88;5095662;28;20035;-35
2023/02/01 03:47:49;;;;;;;19.60;2.93;;;;;;;-143.48;74.43;118439.88;5096220;28;20043;-36
2023/02/01 03:50:18;;;;;;;17.85;3.20;;;;;;;-143.48;74.23;118439.88;5096149;28;20087;-36
2023/02/01 03:52:50;;;;;;;27.30;3.50;;;;;;;-143.48;74.23;118439.88;5095733;28;20028;-36
2023/02/01 03:55:22;;;;;;;24.00;3.95;;;;;;;-143.48;73.54;118439.88;5095696;28;20028;-36
2023/02/01 03:57:56;;;;;;;27.43;3.90;;;;;;;-143.48;74.50;118439.88;5095675;28;20574;-36
2023/02/01 04:00:24;;;;;;;29.27;3.55;;;;;;;-143.48;74.00;118439.88;5095868;28;20336;-36
2023/02/01 04:02:51;;;;;;;23.33;3.70;;;;;;;-143.48;73.16;118439.88;5095765;28;20136;-36
2023/02/01 04:05:16;;;;;;;27.25;3.88;;;;;;;-143.48;72.85;118439.88;5095470;28;20023;-35
2023/02/01 04:07:42;;;;;;;26.85;3.28;;;;;;;-143.48;73.05;118439.88;5095446;28;20016;-36
2023/02/01 04:10:08;;;;;;;32.63;4.95;;;;;;;-143.48;72.64;118439.88;5095604;28;20020;-35
2023/02/01 04:12:33;;;;;;;24.17;3.80;;;;;;;-143.48;72.52;118439.88;5095017;28;20061;-36
2023/02/01 04:14:58;;;;;;;23.98;3.50;;;;;;;-143.48;72.14;118439.88;5095003;28;20020;-36
2023/02/01 04:17:24;;;;;;;25.42;3.90;;;;;;;-143.48;72.93;118439.88;5076869;28;20032;-36
2023/02/01 04:19:49;;;;;;;25.15;3.42;;;;;;;-143.48;72.80;118439.88;5076815;28;20039;-35
2023/02/01 04:22:15;;;;;;;21.38;3.60;;;;;;;-143.48;72.97;118439.88;5094477;28;20023;-36
2023/02/01 04:24:40;;;;;;;23.63;3.58;;;;;;;-143.48;72.68;118439.88;5095142;28;20051;-36
2023/02/01 04:27:05;;;;;;;23.95;3.38;;;;;;;-143.48;72.45;118439.88;5094918;28;20024;-36
2023/02/01 04:29:30;;;;;;;29.52;4.38;;;;;;;-143.48;72.79;118439.88;5095016;28;20024;-35
2023/02/01 04:31:56;;;;;;;23.33;2.92;;;;;;;-143.48;73.55;118439.88;5094733;28;20016;-38
2023/02/01 04:34:22;;;;;;;24.25;3.60;;;;;;;-143.48;73.74;118439.88;5094717;28;20026;-35
2023/02/01 04:36:48;;;;;;;28.70;4.65;;;;;;;-143.48;74.50;118439.88;5094853;28;20370;-35
2023/02/01 04:39:13;;;;;;;28.35;3.80;;;;;;;-143.48;75.30;118439.88;5094591;28;20028;-35
2023/02/01 04:41:38;;;;;;;27.02;3.63;;;;;;;-143.48;74.44;118439.88;5095089;28;20047;-35
2023/02/01 04:44:04;;;;;;;15.95;3.20;;;;;;;-143.48;74.04;118439.88;5094463;28;20488;-35
2023/02/01 04:46:29;;;;;;;19.50;3.40;;;;;;;-143.48;74.23;118439.88;5094369;28;20048;-36
2023/02/01 04:48:54;;;;;;;22.95;3.45;;;;;;;-143.48;74.29;118439.88;5094664;28;20024;-35
2023/02/01 04:51:20;;;;;;;24.15;4.35;;;;;;;-143.48;74.08;118439.88;5094412;28;20032;-36
2023/02/01 04:53:45;;;;;;;24.77;3.80;;;;;;;-143.48;73.99;118439.88;5094624;28;20124;-35
2023/02/01 04:56:11;;;;;;;24.27;3.80;;;;;;;-143.48;74.54;118439.88;5094201;28;20020;-36
2023/02/01 04:58:36;;;;;;;26.90;4.13;;;;;;;-143.48;73.98;118439.88;5076045;28;20028;-36
2023/02/01 05:01:04;;;;;;;20.83;3.00;;;;;;;-143.48;73.71;118439.88;5094737;28;20024;-36
2023/02/01 05:03:30;;;;;;;30.00;3.60;;;;;;;-143.48;74.30;118439.88;5094075;28;20020;-36
2023/02/01 05:05:55;;;;;;;26.38;3.75;;;;;;;-143.48;74.81;118439.88;5076368;28;20099;-35
2023/02/01 05:08:22;;;;;;;23.98;3.50;;;;;;;-143.48;74.11;118439.88;5094315;28;20119;-38
2023/02/01 05:10:47;;;;;;;22.45;3.15;;;;;;;-143.48;74.05;118439.88;5094331;28;20031;-36
2023/02/01 05:15:56;;;;;;;23.42;3.80;;;;;;;-143.48;74.17;118439.88;5094288;28;20051;-36
2023/02/01 05:18:22;;;;;;;26.65;3.85;;;;;;;-143.48;74.15;118439.88;5093953;28;20020;-36
2023/02/01 05:20:47;;;;;;;23.58;3.80;;;;;;;-143.48;74.21;118439.88;5094440;28;20099;-35
2023/02/01 05:23:12;;;;;;;23.88;3.45;;;;;;;-143.48;74.07;118439.88;5094428;28;20028;-35
2023/02/01 05:25:38;;;;;;;18.38;3.55;;;;;;;-143.48;73.97;118439.88;5093787;28;20039;-35
2023/02/01 05:28:03;;;;;;;24.20;3.25;;;;;;;-143.48;74.79;118439.88;5094077;28;20024;-35
2023/02/01 05:30:29;;;;;;;27.55;3.60;;;;;;;-143.48;74.95;118439.88;5093703;28;20107;-36
2023/02/01 05:32:54;;;;;;;22.33;3.80;;;;;;;-143.48;74.64;118439.88;5093134;28;20101;-36
2023/02/01 05:35:20;;;;;;;22.40;3.38;;;;;;;-143.48;74.80;118439.88;5093865;28;20024;-35
2023/02/01 05:37:45;;;;;;;31.75;4.90;;;;;;;-143.48;75.03;118439.88;5094236;28;20023;-35
2023/02/01 05:40:11;;;;;;;27.95;3.47;;;;;;;-143.48;74.56;118439.88;5093625;28;20032;-35
2023/02/01 05:42:36;;;;;;;21.73;3.83;;;;;;;-143.48;74.82;118439.88;5093866;28;20074;-36
2023/02/01 05:45:02;;;;;;;27.13;3.20;;;;;;;-143.48;74.39;118439.88;5093843;28;20077;-36
2023/02/01 05:47:27;;;;;;;34.25;3.85;;;;;;;-143.48;74.69;118439.88;5093285;28;20067;-35
2023/02/01 05:49:53;;;;;;;26.05;3.25;;;;;;;-143.48;74.08;118439.88;5093993;28;20027;-38
2023/02/01 05:52:19;;;;;;;18.88;3.10;;;;;;;-143.48;74.67;118439.88;5094359;28;20112;-36
2023/02/01 05:54:47;;;;;;;24.48;3.22;;;;;;;-143.48;74.68;118439.88;5093709;28;20044;-35
2023/02/01 05:57:14;;;;;;;20.40;3.17;;;;;;;-143.48;74.78;118439.88;5093648;28;20382;-36
2023/02/01 05:59:44;;;;;;;16.05;4.00;;;;;;;-143.48;74.64;118439.88;5093428;28;20032;-36
2023/02/01 06:02:10;;;;;;;17.42;3.22;;;;;;;-143.48;73.93;118439.88;5093306;28;20056;-35
2023/02/01 06:04:36;;;;;;;21.38;3.60;;;;;;;-143.48;74.88;118439.88;5093655;28;20082;-35
2023/02/01 06:07:01;;;;;;;26.27;3.15;;;;;;;-143.48;74.38;118439.88;5093222;28;20017;-36
2023/02/01 06:09:28;;;;;;;16.33;3.08;;;;;;;-143.48;74.80;118439.88;5093189;28;20031;-36
2023/02/01 06:11:53;;;;;;;22.13;3.35;;;;;;;-143.48;73.98;118439.88;5093386;28;20463;-35
2023/02/01 06:14:18;;;;;;;22.60;3.63;;;;;;;-143.48;74.41;118439.88;5093599;28;20050;-36
2023/02/01 06:16:46;;;;;;;20.98;2.53;;;;;;;-143.48;75.01;118439.88;5093535;28;20024;-35
2023/02/01 06:19:12;;;;;;;18.85;3.47;;;;;;;-143.48;73.94;118439.88;5093565;28;20020;-36
2023/02/01 06:21:37;;;;;;;24.65;3.88;;;;;;;-143.48;75.17;118439.88;5093092;28;20111;-36
2023/02/01 06:24:03;;;;;;;30.15;3.42;;;;;;;-143.48;75.83;118439.88;5093586;28;20039;-35
2023/02/01 06:26:28;;;;;;;23.58;3.45;;;;;;;-143.48;75.93;118439.88;5092956;28;20028;-35
2023/02/01 06:28:55;;;;;;;21.52;3.28;;;;;;;-143.48;75.97;118439.88;5093160;28;20032;-35
2023/02/01 06:31:20;;;;;;;23.90;3.83;;;;;;;-143.48;75.12;118439.88;5093163;28;20031;-35
2023/02/01 06:33:46;;;;;;;20.23;4.25;;;;;;;-143.48;75.19;118439.88;5093363;28;20032;-35
2023/02/01 06:36:12;;;;;;;19.55;3.58;;;;;;;-143.48;75.13;118439.88;5093292;28;20469;-35
2023/02/01 06:38:38;;;;;;;25.75;3.20;;;;;;;-143.48;74.86;118439.88;5093312;28;20020;-36
2023/02/01 06:41:05;;;;;;;23.10;3.53;;;;;;;-143.48;74.95;118439.88;5093249;28;20052;-35
2023/02/01 06:43:32;;;;;;;22.50;3.65;;;;;;;-143.48;75.24;118439.88;5093325;28;20046;-36
2023/02/01 06:46:02;;;;;;;16.98;3.33;;;;;;;-143.48;75.04;118439.88;5097102;28;20115;-37
2023/02/01 06:48:28;;;;;;;19.13;2.85;;;;;;;-143.48;75.66;118439.88;5096736;28;20110;-36
2023/02/01 06:50:53;;;;;;;22.75;3.33;;;;;;;-143.48;74.48;118439.88;5096975;28;20107;-36
2023/02/01 06:53:18;;;;;;;16.13;3.08;;;;;;;-143.48;75.04;118439.88;5096838;28;20081;-36
2023/02/01 06:56:01;;;;;;;24.13;3.20;;;;;;;-143.48;76.41;118439.88;5096489;28;20466;-35
2023/02/01 06:58:31;;;;;;;22.83;3.35;;;;;;;-143.48;75.55;118439.88;5097101;28;20024;-36
2023/02/01 07:00:57;;;;;;;19.55;3.15;;;;;;;-143.48;75.14;118439.88;5096700;28;20511;-35
2023/02/01 07:03:23;;;;;;;23.15;3.00;;;;;;;-143.48;75.64;118439.88;5096370;28;20019;-36
2023/02/01 07:05:48;;;;;;;28.13;4.35;;;;;;;-143.48;75.75;118439.88;5096367;28;20379;-36
2023/02/01 07:08:14;;;;;;;23.02;3.60;;;;;;;-143.48;74.77;118439.88;5096339;28;20035;-35
2023/02/01 07:10:39;;;;;;;29.70;3.35;;;;;;;-143.48;75.51;118439.88;5096541;28;20095;-36
2023/02/01 07:13:04;;;;;;;22.15;2.80;;;;;;;-143.48;74.68;118439.88;5096550;28;20077;-35
2023/02/01 07:15:30;;;;;;;26.95;4.35;;;;;;;-143.48;75.07;118439.88;5096230;28;20049;-35
2023/02/01 07:17:56;;;;;;;25.20;3.53;;;;;;;-143.48;75.96;118439.88;5096000;28;20043;-35
2023/02/01 07:20:21;;;;;;;30.58;3.65;;;;;;;-143.48;75.97;118439.88;5096614;28;20023;-37
2023/02/01 07:22:46;;;;;;;17.95;3.83;;;;;;;-143.48;75.77;118439.88;5095728;28;20028;-36
2023/02/01 07:25:12;;;;;;;17.45;2.55;;;;;;;-143.48;75.54;118439.88;5095677;28;20026;-36
2023/02/01 07:27:37;;;;;;;18.80;3.10;;;;;;;-143.48;75.30;118439.88;5096141;28;20055;-36
2023/02/01 07:30:06;;;;;;;22.15;3.80;;;;;;;-143.48;75.60;118439.88;5095959;28;20039;-35
2023/02/01 07:32:32;;;;;;;26.77;3.47;;;;;;;-143.48;76.25;118439.88;5095761;28;20360;-35
2023/02/01 07:34:58;;;;;;;19.50;3.00;;;;;;;-143.48;75.96;118439.88;5095810;28;20110;-35
2023/02/01 07:37:24;;;;;;;20.98;3.55;;;;;;;-143.48;75.67;118439.88;5095914;28;20031;-37
2023/02/01 07:39:52;;;;;;;22.90;3.88;;;;;;;-143.48;76.51;118439.88;5096284;28;20024;-35
2023/02/01 07:42:18;;;;;;;24.30;3.28;;;;;;;-143.48;76.11;118439.88;5096195;28;20028;-35
2023/02/01 07:44:43;;;;;;;19.95;3.10;;;;;;;-143.48;75.57;118439.88;5095555;28;20055;-35
2023/02/01 07:47:09;;;;;;;19.80;3.05;;;;;;;-143.48;76.03;118439.88;5095374;28;20115;-35
2023/02/01 07:49:34;;;;;;;17.63;2.70;;;;;;;-143.48;75.73;118439.88;5095736;28;20028;-35
2023/02/01 07:51:59;;;;;;;26.02;3.92;;;;;;;-143.48;75.88;118439.88;5096044;28;20244;-35
2023/02/01 07:54:25;;;;;;;14.98;2.90;;;;;;;-143.48;76.20;118439.88;5095401;28;20024;-35
2023/02/01 07:56:59;;;;;;;21.45;3.30;;;;;;;-143.48;75.85;118439.88;5094657;28;20028;-35
2023/02/01 07:59:25;;;;;;;25.17;3.35;;;;;;;-143.48;75.82;118439.88;5077180;28;20020;-35
2023/02/01 08:01:50;;;;;;;22.75;3.25;;;;;;;-143.48;75.05;118439.88;5095233;28;20024;-36
2023/02/01 08:04:15;;;;;;;24.02;3.90;;;;;;;-143.48;74.70;118439.88;5095569;28;20027;-35
2023/02/01 08:06:41;;;;;;;23.70;3.25;;;;;;;-143.48;74.79;118439.88;5095365;28;20414;-36
2023/02/01 08:09:08;;;;;;;24.08;3.65;;;;;;;-143.48;75.28;118439.88;5095134;28;20125;-36
2023/02/01 08:11:34;;;;;;;23.70;3.17;;;;;;;-143.48;74.86;118439.88;5095082;28;20081;-35
2023/02/01 08:13:59;;;;;;;24.80;3.58;;;;;;;-143.48;74.21;118439.88;5095599;28;20027;-35
2023/02/01 08:16:25;;;;;;;18.42;2.60;;;;;;;-143.48;73.91;118439.88;5095257;28;20026;-35
2023/02/01 08:18:51;;;;;;;19.52;2.80;;;;;;;-143.48;74.96;118439.88;5095339;28;20028;-35
2023/02/01 08:21:21;;;;;;;21.90;3.80;;;;;;;-143.48;73.31;118439.88;5094975;28;20374;-33
2023/02/01 08:23:47;;;;;;;17.17;2.80;;;;;;;-143.48;73.69;118439.88;5094842;28;20398;-35
2023/02/01 08:26:24;;;;;;;17.80;3.05;;;;;;;-143.48;72.71;118439.88;5095213;28;20020;-35
2023/02/01 08:28:56;;;;;;;16.55;3.60;;;;;;;-143.48;72.98;118439.88;5094545;28;20024;-36
2023/02/01 08:31:24;;;;;;;24.30;3.42;;;;;;;-143.48;73.84;118439.88;5094690;28;20454;-34
2023/02/01 08:33:56;;;;;;;21.52;3.17;;;;;;;-143.48;73.82;118439.88;5094359;28;20028;-35
2023/02/01 08:36:23;;;;;;;24.27;3.25;;;;;;;-143.48;73.45;118439.88;5094663;28;20485;-35
2023/02/01 08:38:48;;;;;;;21.33;3.75;;;;;;;-143.48;71.55;118439.88;5094757;28;20020;-34
2023/02/01 08:41:17;;;;;;;23.67;2.75;;;;;;;-143.48;71.06;118439.88;5094677;28;20518;-34
2023/02/01 08:43:43;;;;;;;27.05;3.25;;;;;;;-143.48;70.30;118439.88;5094625;28;20016;-36
2023/02/01 08:46:10;;;;;;;26.30;4.20;;;;;;;-143.48;71.39;118439.88;5094481;28;20044;-36
2023/02/01 08:48:35;;;;;;;19.90;4.03;;;;;;;-143.48;69.87;118439.88;5094862;28;20050;-35
2023/02/01 08:51:07;;;;;;;18.08;3.28;;;;;;;-143.48;69.45;118439.88;5094300;28;20095;-37
2023/02/01 08:53:33;;;;;;;21.05;3.10;;;;;;;-143.48;68.85;118439.88;5094874;28;20024;-35
2023/02/01 08:55:59;;;;;;;20.17;3.72;;;;;;;-143.48;67.55;118439.88;5094409;28;20027;-35
2023/02/01 08:58:24;;;;;;;16.48;3.03;;;;;;;-143.48;68.42;118439.88;5094147;28;20028;-35
2023/02/01 09:00:50;;;;;;;17.90;3.10;;;;;;;-143.48;67.60;118439.88;5075985;28;20093;-34
2023/02/01 09:03:16;;;;;;;18.85;3.28;;;;;;;-143.48;67.55;118439.88;5094115;28;20024;-37
2023/02/01 09:05:42;;;;;;;21.60;3.55;;;;;;;-143.48;68.29;118439.88;5094124;28;20027;-34
2023/02/01 09:08:07;;;;;;;20.00;3.20;;;;;;;-143.48;66.32;118439.88;5093847;28;20020;-36
2023/02/01 09:10:34;;;;;;;20.17;3.17;;;;;;;-143.48;66.66;118439.88;5094018;28;20027;-36
2023/02/01 09:12:59;;;;;;;21.73;3.40;;;;;;;-143.48;66.67;118439.88;5094500;28;20056;-34
2023/02/01 09:15:24;;;;;;;22.33;3.10;;;;;;;-143.48;68.38;118439.88;5093897;28;20050;-35
2023/02/01 09:17:50;;;;;;;22.38;3.60;;;;;;;-143.48;68.45;118439.88;5093903;28;20085;-35
2023/02/01 09:20:15;;;;;;;16.80;3.05;;;;;;;-143.48;68.64;118439.88;5093875;28;20024;-35
2023/02/01 09:22:41;;;;;;;24.27;3.08;;;;;;;-143.48;68.80;118439.88;5094088;28;20050;-36
2023/02/01 09:25:07;;;;;;;18.83;3.33;;;;;;;-143.48;69.01;118439.88;5094155;28;20071;-36
2023/02/01 09:27:33;;;;;;;19.88;3.20;;;;;;;-143.48;69.17;118439.88;5075618;28;20023;-37
2023/02/01 09:29:59;;;;;;;17.05;3.03;;;;;;;-143.48;69.52;118439.88;5093654;28;20031;-36
2023/02/01 09:32:24;;;;;;;33.78;3.75;;;;;;;-143.48;69.54;118439.88;5093847;28;20026;-35
2023/02/01 09:34:51;;;;;;;22.95;3.22;;;;;;;-143.48;70.25;118439.88;5093894;28;20578;-35
2023/02/01 09:37:17;;;;;;;20.45;3.10;;;;;;;-143.48;70.51;118439.88;5093305;28;20024;-35
2023/02/01 09:39:43;;;;;;;23.63;4.15;;;;;;;-143.48;69.81;118439.88;5091302;28;20031;-36
2023/02/01 09:42:27;;;;;;;16.75;2.88;;;;;;;-143.48;69.93;118439.88;5091376;28;20020;-36
2023/02/01 09:45:32;;;;;;;21.02;3.45;;;;;;;-143.48;69.15;118439.88;5092024;28;20046;-36
2023/02/01 09:48:07;;;;;;;21.38;3.13;;;;;;;-143.48;70.31;118439.88;5068570;28;20544;-35
2023/02/01 09:50:44;;;;;;;18.38;3.15;;;;;;;-143.48;70.44;118439.88;5091704;28;20027;-34
2023/02/01 09:53:34;;;;;;;21.85;2.80;;;;;;;-143.48;70.19;118439.88;5090063;28;20020;-36
2023/02/01 09:56:30;;;;;;;19.08;2.70;;;;;;;-143.48;69.67;118439.88;5089551;28;20527;-35
2023/02/01 09:59:32;;;;;;;16.45;3.10;;;;;;;-143.48;70.36;118439.88;5054059;28;20067;-35
2023/02/01 10:01:59;;;;;;;20.08;3.10;;;;;;;-143.48;70.44;118439.88;5089579;28;20070;-36
2023/02/01 10:04:25;;;;;;;24.77;3.20;;;;;;;-143.48;71.46;118439.88;5071757;28;20028;-35
2023/02/01 10:07:13;;;;;;;20.13;3.88;;;;;;;-143.48;73.95;118439.88;5090702;28;20092;-35
2023/02/01 10:09:50;;;;;;;27.17;3.45;;;;;;;-143.48;73.86;118439.88;5093663;28;20027;-34
2023/02/01 10:12:38;;;;;;;22.60;3.55;;;;;;;-143.48;75.56;118439.88;5093528;28;20035;-35
2023/02/01 10:15:15;;;;;;;22.08;3.20;;;;;;;-143.48;77.10;118439.88;5093742;28;20035;-35
2023/02/01 10:17:43;;;;;;;27.60;3.88;;;;;;;-143.48;78.85;118439.88;5093228;28;20038;-35
2023/02/01 10:20:29;;;;;;;28.13;3.35;;;;;;;-143.48;79.50;118439.88;5096282;28;20028;-35
2023/02/01 10:23:15;;;;;;;19.50;3.63;;;;;;;-143.48;78.33;118439.88;5097324;28;20050;-35
2023/02/01 10:26:10;;;;;;;20.67;3.50;;;;;;;-143.48;79.17;118439.88;5097204;28;20035;-35
2023/02/01 10:28:39;;;;;;;23.35;3.17;;;;;;;-143.48;78.22;118439.88;5097453;28;20032;-35
2023/02/01 10:31:08;;;;;;;19.73;2.92;;;;;;;-143.48;78.68;118439.88;5096961;28;20028;-35
2023/02/01 10:33:41;;;;;;;20.58;3.25;;;;;;;-143.48;77.26;118439.88;5097286;28;20031;-35
2023/02/01 10:36:21;;;;;;;20.13;3.20;;;;;;;-143.48;76.75;118439.88;5097225;28;20124;-35
2023/02/01 10:38:47;;;;;;;17.17;2.97;;;;;;;-143.48;75.92;118439.88;5097476;28;20081;-35
2023/02/01 10:41:16;;;;;;;21.92;3.33;;;;;;;-143.48;74.62;118439.88;5097094;28;20418;-36
2023/02/01 10:43:44;;;;;;;20.88;3.47;;;;;;;-143.48;74.50;118439.88;5096790;28;20028;-40
2023/02/01 10:46:10;;;;;;;19.20;3.25;;;;;;;-143.48;73.32;118439.88;5096559;28;20040;-36
2023/02/01 10:48:36;;;;;;;19.95;3.20;;;;;;;-143.48;72.93;118439.88;5097304;28;20451;-35
2023/02/01 10:51:07;;;;;;;20.35;2.88;;;;;;;-143.48;71.66;118439.88;5096876;28;20024;-35
2023/02/01 10:53:39;;;;;;;17.38;2.80;;;;;;;-143.48;71.53;118439.88;5096630;28;20066;-34
2023/02/01 10:56:07;;;;;;;17.85;3.13;;;;;;;-143.48;73.20;118439.88;5096428;28;20053;-35
2023/02/01 10:58:33;;;;;;;18.13;3.38;;;;;;;-143.48;72.65;118439.88;5096454;28;20039;-36
2023/02/01 11:01:05;;;;;;;18.20;3.30;;;;;;;-143.48;72.37;118439.88;5096817;28;20016;-35
2023/02/01 11:03:54;;;;;;;29.70;4.80;;;;;;;-143.48;74.17;118439.88;5079289;28;20031;-35
2023/02/01 11:06:52;;;;;;;20.77;3.15;;;;;;;-143.48;75.78;118439.88;5096667;28;20028;-35
2023/02/01 11:09:24;;;;;;;22.27;3.13;;;;;;;-143.48;76.21;118439.88;5082643;28;20038;-34
2023/02/01 11:11:49;;;;;;;28.77;4.13;;;;;;;-143.48;76.46;118439.88;5096436;28;20034;-36
2023/02/01 11:14:19;;;;;;;24.50;3.97;;;;;;;-143.48;76.85;118439.88;5096119;28;20028;-35
2023/02/01 11:16:50;;;;;;;18.35;3.10;;;;;;;-143.48;75.22;118439.88;5095833;28;20374;-35
2023/02/01 11:19:17;;;;;;;18.55;3.08;;;;;;;-143.48;75.37;118439.88;5095771;28;20141;-35
2023/02/01 11:21:46;;;;;;;21.17;3.25;;;;;;;-143.48;75.41;118439.88;5096124;28;20058;-35
2023/02/01 11:24:28;;;;;;;24.83;3.38;;;;;;;-143.48;74.10;118439.88;5096065;28;20023;-36
2023/02/01 11:26:58;;;;;;;27.52;3.45;;;;;;;-143.48;73.51;118439.88;5095886;28;20422;-34
2023/02/01 11:29:29;;;;;;;24.65;3.47;;;;;;;-143.48;73.77;118439.88;5095896;28;20433;-35
2023/02/01 11:31:59;;;;;;;23.58;3.80;;;;;;;-143.48;73.46;118439.88;5094423;28;20517;-35
2023/02/01 11:34:32;;;;;;;25.00;3.85;;;;;;;-143.48;73.19;118439.88;5077505;28;20031;-35